sensor_id;sensor_type;location;lat;lon;timestamp;temperature;humidity
25024;DHT22;13033;50.936;5.334;2023-05-10T00:01:02;14.60;99.90
25024;DHT22;13033;50.936;5.334;2023-05-10T00:03:28;14.70;99.90
25024;DHT22;13033;50.936;5.334;2023-05-10T00:05:53;14.80;99.90
25024;DHT22;13033;50.936;5.334;2023-05-10T00:08:19;14.70;99.90
25024;DHT22;13033;50.936;5.334;2023-05-10T00:10:45;14.70;99.90
25024;DHT22;13033;50.936;5.334;2023-05-10T00:13:10;14.70;99.90
25024;DHT22;13033;50.936;5.334;2023-05-10T00:15:36;14.60;99.90
25024;DHT22;13033;50.936;5.334;2023-05-10T00:18:02;14.60;99.90
25024;DHT22;13033;50.936;5.334;2023-05-10T00:20:27;14.70;99.90
25024;DHT22;13033;50.936;5.334;2023-05-10T00:22:53;14.60;99.90
25024;DHT22;13033;50.936;5.334;2023-05-10T00:25:19;14.60;99.90
25024;DHT22;13033;50.936;5.334;2023-05-10T00:27:47;14.60;99.90
25024;DHT22;13033;50.936;5.334;2023-05-10T00:30:12;14.70;99.90
25024;DHT22;13033;50.936;5.334;2023-05-10T00:32:38;14.70;99.90
25024;DHT22;13033;50.936;5.334;2023-05-10T00:35:04;14.90;99.90
25024;DHT22;13033;50.936;5.334;2023-05-10T00:37:30;14.80;99.90
25024;DHT22;13033;50.936;5.334;2023-05-10T00:39:56;14.90;99.90
25024;DHT22;13033;50.936;5.334;2023-05-10T00:42:21;14.80;99.90
25024;DHT22;13033;50.936;5.334;2023-05-10T00:44:47;14.60;99.90
25024;DHT22;13033;50.936;5.334;2023-05-10T00:47:13;14.60;99.90
25024;DHT22;13033;50.936;5.334;2023-05-10T00:49:40;14.50;99.90
25024;DHT22;13033;50.936;5.334;2023-05-10T00:52:06;14.50;99.90
25024;DHT22;13033;50.936;5.334;2023-05-10T00:54:31;14.50;99.90
25024;DHT22;13033;50.936;5.334;2023-05-10T00:56:57;14.60;99.90
25024;DHT22;13033;50.936;5.334;2023-05-10T00:59:24;14.60;99.90
25024;DHT22;13033;50.936;5.334;2023-05-10T01:01:50;14.50;99.90
25024;DHT22;13033;50.936;5.334;2023-05-10T01:04:18;14.50;99.90
25024;DHT22;13033;50.936;5.334;2023-05-10T01:06:45;14.50;99.90
25024;DHT22;13033;50.936;5.334;2023-05-10T01:09:11;14.60;99.90
25024;DHT22;13033;50.936;5.334;2023-05-10T01:11:38;14.50;99.90
25024;DHT22;13033;50.936;5.334;2023-05-10T01:14:05;14.60;99.90
25024;DHT22;13033;50.936;5.334;2023-05-10T01:16:36;14.50;99.90
25024;DHT22;13033;50.936;5.334;2023-05-10T01:19:09;14.40;99.90
25024;DHT22;13033;50.936;5.334;2023-05-10T01:34:41;14.40;99.90
25024;DHT22;13033;50.936;5.334;2023-05-10T01:37:13;14.40;99.90
25024;DHT22;13033;50.936;5.334;2023-05-10T01:39:55;14.30;99.90
25024;DHT22;13033;50.936;5.334;2023-05-10T01:42:26;14.20;99.90
25024;DHT22;13033;50.936;5.334;2023-05-10T01:44:57;14.20;99.90
25024;DHT22;13033;50.936;5.334;2023-05-10T01:47:43;14.30;99.90
25024;DHT22;13033;50.936;5.334;2023-05-10T01:50:16;14.40;99.90
25024;DHT22;13033;50.936;5.334;2023-05-10T01:52:46;14.30;99.90
25024;DHT22;13033;50.936;5.334;2023-05-10T01:55:15;14.40;99.90
25024;DHT22;13033;50.936;5.334;2023-05-10T01:57:44;14.40;99.90
25024;DHT22;13033;50.936;5.334;2023-05-10T02:00:12;14.50;99.90
25024;DHT22;13033;50.936;5.334;2023-05-10T02:02:44;14.30;99.90
25024;DHT22;13033;50.936;5.334;2023-05-10T02:05:12;14.30;99.90
25024;DHT22;13033;50.936;5.334;2023-05-10T02:07:39;14.40;99.90
25024;DHT22;13033;50.936;5.334;2023-05-10T02:10:07;14.40;99.90
25024;DHT22;13033;50.936;5.334;2023-05-10T02:12:37;14.40;99.90
25024;DHT22;13033;50.936;5.334;2023-05-10T02:15:06;14.40;99.90
25024;DHT22;13033;50.936;5.334;2023-05-10T02:17:33;14.40;99.90
25024;DHT22;13033;50.936;5.334;2023-05-10T02:20:01;14.40;99.90
25024;DHT22;13033;50.936;5.334;2023-05-10T02:22:28;14.60;99.90
25024;DHT22;13033;50.936;5.334;2023-05-10T02:24:55;14.60;99.90
25024;DHT22;13033;50.936;5.334;2023-05-10T02:27:24;14.50;99.90
25024;DHT22;13033;50.936;5.334;2023-05-10T02:29:51;14.60;99.90
25024;DHT22;13033;50.936;5.334;2023-05-10T02:32:17;14.50;99.90
25024;DHT22;13033;50.936;5.334;2023-05-10T02:34:45;14.50;99.90
25024;DHT22;13033;50.936;5.334;2023-05-10T02:37:14;14.60;99.90
25024;DHT22;13033;50.936;5.334;2023-05-10T02:39:41;14.50;99.90
25024;DHT22;13033;50.936;5.334;2023-05-10T02:42:16;14.40;99.90
25024;DHT22;13033;50.936;5.334;2023-05-10T02:44:43;14.40;99.90
25024;DHT22;13033;50.936;5.334;2023-05-10T02:47:10;14.60;99.90
25024;DHT22;13033;50.936;5.334;2023-05-10T02:49:36;14.50;99.90
25024;DHT22;13033;50.936;5.334;2023-05-10T02:52:05;14.60;99.90
25024;DHT22;13033;50.936;5.334;2023-05-10T02:54:34;14.60;99.90
25024;DHT22;13033;50.936;5.334;2023-05-10T02:57:04;14.60;99.90
25024;DHT22;13033;50.936;5.334;2023-05-10T02:59:31;14.80;99.90
25024;DHT22;13033;50.936;5.334;2023-05-10T03:01:59;14.90;99.90
25024;DHT22;13033;50.936;5.334;2023-05-10T03:04:25;14.90;99.90
25024;DHT22;13033;50.936;5.334;2023-05-10T03:06:51;14.70;99.90
25024;DHT22;13033;50.936;5.334;2023-05-10T03:09:18;14.70;99.90
25024;DHT22;13033;50.936;5.334;2023-05-10T03:11:58;14.50;99.90
25024;DHT22;13033;50.936;5.334;2023-05-10T03:20:09;14.30;99.90
25024;DHT22;13033;50.936;5.334;2023-05-10T03:22:51;14.20;99.90
25024;DHT22;13033;50.936;5.334;2023-05-10T03:25:18;14.40;99.90
25024;DHT22;13033;50.936;5.334;2023-05-10T03:27:46;14.60;99.90
25024;DHT22;13033;50.936;5.334;2023-05-10T03:30:13;14.70;99.90
25024;DHT22;13033;50.936;5.334;2023-05-10T03:32:39;14.60;99.90
25024;DHT22;13033;50.936;5.334;2023-05-10T03:35:12;14.60;99.90
25024;DHT22;13033;50.936;5.334;2023-05-10T03:37:39;14.60;99.90
25024;DHT22;13033;50.936;5.334;2023-05-10T03:40:06;14.70;99.90
25024;DHT22;13033;50.936;5.334;2023-05-10T03:42:31;14.80;99.90
25024;DHT22;13033;50.936;5.334;2023-05-10T03:44:57;14.70;99.90
25024;DHT22;13033;50.936;5.334;2023-05-10T03:47:23;14.80;99.90
25024;DHT22;13033;50.936;5.334;2023-05-10T03:49:48;14.70;99.90
25024;DHT22;13033;50.936;5.334;2023-05-10T03:52:14;14.60;99.90
25024;DHT22;13033;50.936;5.334;2023-05-10T03:54:39;14.50;99.90
25024;DHT22;13033;50.936;5.334;2023-05-10T03:57:05;14.60;99.90
25024;DHT22;13033;50.936;5.334;2023-05-10T03:59:31;14.50;99.90
25024;DHT22;13033;50.936;5.334;2023-05-10T04:01:56;14.60;99.90
25024;DHT22;13033;50.936;5.334;2023-05-10T04:04:22;14.60;99.90
25024;DHT22;13033;50.936;5.334;2023-05-10T04:06:48;14.50;99.90
25024;DHT22;13033;50.936;5.334;2023-05-10T04:09:14;14.60;99.90
25024;DHT22;13033;50.936;5.334;2023-05-10T04:11:40;14.60;99.90
25024;DHT22;13033;50.936;5.334;2023-05-10T04:14:06;14.40;99.90
25024;DHT22;13033;50.936;5.334;2023-05-10T04:16:31;14.30;99.90
25024;DHT22;13033;50.936;5.334;2023-05-10T04:18:57;14.10;99.90
25024;DHT22;13033;50.936;5.334;2023-05-10T04:21:23;13.90;99.90
25024;DHT22;13033;50.936;5.334;2023-05-10T04:23:48;13.90;99.90
25024;DHT22;13033;50.936;5.334;2023-05-10T04:26:14;14.00;99.90
25024;DHT22;13033;50.936;5.334;2023-05-10T04:28:40;14.00;99.90
25024;DHT22;13033;50.936;5.334;2023-05-10T04:31:08;14.00;99.90
25024;DHT22;13033;50.936;5.334;2023-05-10T04:33:35;14.10;99.90
25024;DHT22;13033;50.936;5.334;2023-05-10T04:36:01;14.10;99.90
25024;DHT22;13033;50.936;5.334;2023-05-10T04:38:27;14.20;99.90
25024;DHT22;13033;50.936;5.334;2023-05-10T04:40:53;14.20;99.90
25024;DHT22;13033;50.936;5.334;2023-05-10T04:43:19;14.20;99.90
25024;DHT22;13033;50.936;5.334;2023-05-10T04:45:50;14.20;99.90
25024;DHT22;13033;50.936;5.334;2023-05-10T04:48:16;14.10;99.90
25024;DHT22;13033;50.936;5.334;2023-05-10T04:50:41;14.10;99.90
25024;DHT22;13033;50.936;5.334;2023-05-10T04:53:07;14.10;99.90
25024;DHT22;13033;50.936;5.334;2023-05-10T04:55:32;14.00;99.90
25024;DHT22;13033;50.936;5.334;2023-05-10T04:57:58;13.90;99.90
25024;DHT22;13033;50.936;5.334;2023-05-10T05:00:24;13.90;99.90
25024;DHT22;13033;50.936;5.334;2023-05-10T05:02:50;13.90;99.90
25024;DHT22;13033;50.936;5.334;2023-05-10T05:05:15;13.80;99.90
25024;DHT22;13033;50.936;5.334;2023-05-10T05:07:41;13.90;99.90
25024;DHT22;13033;50.936;5.334;2023-05-10T05:10:07;13.90;99.90
25024;DHT22;13033;50.936;5.334;2023-05-10T05:12:34;13.90;99.90
25024;DHT22;13033;50.936;5.334;2023-05-10T05:15:00;13.80;99.90
25024;DHT22;13033;50.936;5.334;2023-05-10T05:17:26;13.80;99.90
25024;DHT22;13033;50.936;5.334;2023-05-10T05:19:52;13.80;99.90
25024;DHT22;13033;50.936;5.334;2023-05-10T05:22:17;13.90;99.90
25024;DHT22;13033;50.936;5.334;2023-05-10T05:24:44;13.80;99.90
25024;DHT22;13033;50.936;5.334;2023-05-10T05:27:11;13.70;99.90
25024;DHT22;13033;50.936;5.334;2023-05-10T05:29:36;13.70;99.90
25024;DHT22;13033;50.936;5.334;2023-05-10T05:32:02;13.70;99.90
25024;DHT22;13033;50.936;5.334;2023-05-10T05:34:28;13.60;99.90
25024;DHT22;13033;50.936;5.334;2023-05-10T05:36:53;13.70;99.90
25024;DHT22;13033;50.936;5.334;2023-05-10T05:39:19;13.80;99.90
25024;DHT22;13033;50.936;5.334;2023-05-10T05:41:45;13.70;99.90
25024;DHT22;13033;50.936;5.334;2023-05-10T05:44:12;13.80;99.90
25024;DHT22;13033;50.936;5.334;2023-05-10T05:46:37;13.90;99.90
25024;DHT22;13033;50.936;5.334;2023-05-10T05:49:03;13.80;99.90
25024;DHT22;13033;50.936;5.334;2023-05-10T05:51:29;13.90;99.90
25024;DHT22;13033;50.936;5.334;2023-05-10T05:53:55;14.00;99.90
25024;DHT22;13033;50.936;5.334;2023-05-10T05:56:20;14.00;99.90
25024;DHT22;13033;50.936;5.334;2023-05-10T05:58:50;14.10;99.90
25024;DHT22;13033;50.936;5.334;2023-05-10T06:01:16;14.00;99.90
25024;DHT22;13033;50.936;5.334;2023-05-10T06:03:42;14.00;99.90
25024;DHT22;13033;50.936;5.334;2023-05-10T06:06:07;13.90;99.90
25024;DHT22;13033;50.936;5.334;2023-05-10T06:08:33;14.00;99.90
25024;DHT22;13033;50.936;5.334;2023-05-10T06:11:02;14.10;99.90
25024;DHT22;13033;50.936;5.334;2023-05-10T06:13:29;14.00;99.90
25024;DHT22;13033;50.936;5.334;2023-05-10T06:15:58;13.90;99.90
25024;DHT22;13033;50.936;5.334;2023-05-10T06:18:23;13.90;99.90
25024;DHT22;13033;50.936;5.334;2023-05-10T06:20:49;13.90;99.90
25024;DHT22;13033;50.936;5.334;2023-05-10T06:23:15;13.80;99.90
25024;DHT22;13033;50.936;5.334;2023-05-10T06:25:41;13.90;99.90
25024;DHT22;13033;50.936;5.334;2023-05-10T06:28:07;14.00;99.90
25024;DHT22;13033;50.936;5.334;2023-05-10T06:30:32;14.10;99.90
25024;DHT22;13033;50.936;5.334;2023-05-10T06:32:58;14.20;99.90
25024;DHT22;13033;50.936;5.334;2023-05-10T06:35:24;14.00;99.90
25024;DHT22;13033;50.936;5.334;2023-05-10T06:37:50;14.00;99.90
25024;DHT22;13033;50.936;5.334;2023-05-10T06:40:16;14.10;99.90
25024;DHT22;13033;50.936;5.334;2023-05-10T06:42:42;14.00;99.90
25024;DHT22;13033;50.936;5.334;2023-05-10T06:45:10;14.00;99.90
25024;DHT22;13033;50.936;5.334;2023-05-10T06:47:36;14.00;99.90
25024;DHT22;13033;50.936;5.334;2023-05-10T06:50:01;13.90;99.90
25024;DHT22;13033;50.936;5.334;2023-05-10T06:52:27;13.80;99.90
25024;DHT22;13033;50.936;5.334;2023-05-10T06:54:53;13.80;99.90
25024;DHT22;13033;50.936;5.334;2023-05-10T06:57:19;13.80;99.90
25024;DHT22;13033;50.936;5.334;2023-05-10T06:59:46;13.90;99.90
25024;DHT22;13033;50.936;5.334;2023-05-10T07:02:11;13.90;99.90
25024;DHT22;13033;50.936;5.334;2023-05-10T07:04:37;13.80;99.90
25024;DHT22;13033;50.936;5.334;2023-05-10T07:07:03;13.80;99.90
25024;DHT22;13033;50.936;5.334;2023-05-10T07:09:28;13.80;99.90
25024;DHT22;13033;50.936;5.334;2023-05-10T07:11:55;14.00;99.90
25024;DHT22;13033;50.936;5.334;2023-05-10T07:14:22;14.10;99.90
25024;DHT22;13033;50.936;5.334;2023-05-10T07:16:48;14.20;99.90
25024;DHT22;13033;50.936;5.334;2023-05-10T07:19:13;14.20;99.90
25024;DHT22;13033;50.936;5.334;2023-05-10T07:21:39;14.10;99.90
25024;DHT22;13033;50.936;5.334;2023-05-10T07:24:07;14.20;99.90
25024;DHT22;13033;50.936;5.334;2023-05-10T07:26:33;14.20;99.90
25024;DHT22;13033;50.936;5.334;2023-05-10T07:28:59;14.30;99.90
25024;DHT22;13033;50.936;5.334;2023-05-10T07:31:24;14.40;99.90
25024;DHT22;13033;50.936;5.334;2023-05-10T07:33:50;14.50;99.90
25024;DHT22;13033;50.936;5.334;2023-05-10T07:36:16;14.50;99.90
25024;DHT22;13033;50.936;5.334;2023-05-10T07:38:41;14.30;99.90
25024;DHT22;13033;50.936;5.334;2023-05-10T07:41:07;14.40;99.90
25024;DHT22;13033;50.936;5.334;2023-05-10T07:43:32;14.50;99.90
25024;DHT22;13033;50.936;5.334;2023-05-10T07:45:58;14.70;99.90
25024;DHT22;13033;50.936;5.334;2023-05-10T07:48:25;14.70;99.90
25024;DHT22;13033;50.936;5.334;2023-05-10T07:50:51;14.80;99.90
25024;DHT22;13033;50.936;5.334;2023-05-10T07:53:17;14.80;99.90
25024;DHT22;13033;50.936;5.334;2023-05-10T07:55:44;14.80;99.90
25024;DHT22;13033;50.936;5.334;2023-05-10T07:58:10;14.70;99.90
25024;DHT22;13033;50.936;5.334;2023-05-10T08:00:36;14.70;99.90
25024;DHT22;13033;50.936;5.334;2023-05-10T08:03:04;14.70;99.90
25024;DHT22;13033;50.936;5.334;2023-05-10T08:05:30;14.90;99.90
25024;DHT22;13033;50.936;5.334;2023-05-10T08:07:56;14.90;99.90
25024;DHT22;13033;50.936;5.334;2023-05-10T08:10:23;14.90;99.90
25024;DHT22;13033;50.936;5.334;2023-05-10T08:12:49;15.00;99.90
25024;DHT22;13033;50.936;5.334;2023-05-10T08:15:15;14.90;99.90
25024;DHT22;13033;50.936;5.334;2023-05-10T08:17:41;14.70;99.90
25024;DHT22;13033;50.936;5.334;2023-05-10T08:20:07;14.70;99.90
25024;DHT22;13033;50.936;5.334;2023-05-10T08:22:33;14.30;99.90
25024;DHT22;13033;50.936;5.334;2023-05-10T08:24:58;14.10;99.90
25024;DHT22;13033;50.936;5.334;2023-05-10T08:27:24;14.00;99.90
25024;DHT22;13033;50.936;5.334;2023-05-10T08:29:50;14.00;99.90
25024;DHT22;13033;50.936;5.334;2023-05-10T08:32:15;14.00;99.90
25024;DHT22;13033;50.936;5.334;2023-05-10T08:34:41;13.90;99.90
25024;DHT22;13033;50.936;5.334;2023-05-10T08:37:07;13.70;99.90
25024;DHT22;13033;50.936;5.334;2023-05-10T08:39:35;13.60;99.90
25024;DHT22;13033;50.936;5.334;2023-05-10T08:42:04;13.50;99.90
25024;DHT22;13033;50.936;5.334;2023-05-10T08:44:32;13.60;99.90
25024;DHT22;13033;50.936;5.334;2023-05-10T08:46:59;13.50;99.90
25024;DHT22;13033;50.936;5.334;2023-05-10T08:49:30;13.70;99.90
25024;DHT22;13033;50.936;5.334;2023-05-10T08:51:57;13.80;99.90
25024;DHT22;13033;50.936;5.334;2023-05-10T08:54:23;13.90;99.90
25024;DHT22;13033;50.936;5.334;2023-05-10T08:56:49;13.70;99.90
25024;DHT22;13033;50.936;5.334;2023-05-10T08:59:15;13.70;99.90
25024;DHT22;13033;50.936;5.334;2023-05-10T09:01:42;13.80;99.90
25024;DHT22;13033;50.936;5.334;2023-05-10T09:04:10;13.90;99.90
25024;DHT22;13033;50.936;5.334;2023-05-10T09:06:36;13.80;99.90
25024;DHT22;13033;50.936;5.334;2023-05-10T09:09:02;13.90;99.90
25024;DHT22;13033;50.936;5.334;2023-05-10T09:11:28;13.80;99.90
25024;DHT22;13033;50.936;5.334;2023-05-10T09:13:55;13.70;99.90
25024;DHT22;13033;50.936;5.334;2023-05-10T09:16:22;13.90;99.90
25024;DHT22;13033;50.936;5.334;2023-05-10T09:18:48;14.10;99.90
25024;DHT22;13033;50.936;5.334;2023-05-10T09:21:14;13.90;99.90
25024;DHT22;13033;50.936;5.334;2023-05-10T09:23:46;14.10;99.90
25024;DHT22;13033;50.936;5.334;2023-05-10T09:26:12;14.10;99.90
25024;DHT22;13033;50.936;5.334;2023-05-10T09:29:10;14.20;99.90
25024;DHT22;13033;50.936;5.334;2023-05-10T09:34:18;14.40;99.90
25024;DHT22;13033;50.936;5.334;2023-05-10T09:36:55;14.60;99.90
25024;DHT22;13033;50.936;5.334;2023-05-10T09:39:33;14.80;99.90
25024;DHT22;13033;50.936;5.334;2023-05-10T09:42:06;15.00;99.90
25024;DHT22;13033;50.936;5.334;2023-05-10T09:44:33;15.10;99.90
25024;DHT22;13033;50.936;5.334;2023-05-10T09:47:03;15.00;99.90
25024;DHT22;13033;50.936;5.334;2023-05-10T09:49:29;15.10;99.90
25024;DHT22;13033;50.936;5.334;2023-05-10T09:52:03;15.00;99.90
25024;DHT22;13033;50.936;5.334;2023-05-10T09:54:29;15.00;99.90
25024;DHT22;13033;50.936;5.334;2023-05-10T09:56:55;15.10;99.90
25024;DHT22;13033;50.936;5.334;2023-05-10T09:59:21;15.00;99.90
25024;DHT22;13033;50.936;5.334;2023-05-10T10:01:57;15.10;99.90
25024;DHT22;13033;50.936;5.334;2023-05-10T10:04:23;15.20;99.90
25024;DHT22;13033;50.936;5.334;2023-05-10T10:06:59;15.50;99.90
25024;DHT22;13033;50.936;5.334;2023-05-10T10:09:25;15.50;99.90
25024;DHT22;13033;50.936;5.334;2023-05-10T10:11:51;15.30;99.90
25024;DHT22;13033;50.936;5.334;2023-05-10T10:14:18;15.40;99.90
25024;DHT22;13033;50.936;5.334;2023-05-10T10:16:44;15.30;99.90
25024;DHT22;13033;50.936;5.334;2023-05-10T10:19:10;15.20;99.90
25024;DHT22;13033;50.936;5.334;2023-05-10T10:21:36;15.30;99.90
25024;DHT22;13033;50.936;5.334;2023-05-10T10:24:02;15.40;99.90
25024;DHT22;13033;50.936;5.334;2023-05-10T10:26:30;15.30;99.90
25024;DHT22;13033;50.936;5.334;2023-05-10T10:31:44;15.00;99.90
25024;DHT22;13033;50.936;5.334;2023-05-10T10:34:17;15.10;99.90
25024;DHT22;13033;50.936;5.334;2023-05-10T10:36:47;15.10;99.90
25024;DHT22;13033;50.936;5.334;2023-05-10T10:39:14;15.10;99.90
25024;DHT22;13033;50.936;5.334;2023-05-10T10:41:52;15.10;99.90
25024;DHT22;13033;50.936;5.334;2023-05-10T10:47:21;15.50;99.90
25024;DHT22;13033;50.936;5.334;2023-05-10T10:57:29;15.80;99.90
25024;DHT22;13033;50.936;5.334;2023-05-10T11:03:03;16.30;99.90
25024;DHT22;13033;50.936;5.334;2023-05-10T11:05:39;16.50;99.90
25024;DHT22;13033;50.936;5.334;2023-05-10T11:10:38;16.70;99.90
25024;DHT22;13033;50.936;5.334;2023-05-10T11:13:08;16.90;99.90
25024;DHT22;13033;50.936;5.334;2023-05-10T11:15:43;17.00;99.90
25024;DHT22;13033;50.936;5.334;2023-05-10T11:20:44;16.60;99.90
25024;DHT22;13033;50.936;5.334;2023-05-10T11:23:15;16.70;99.90
25024;DHT22;13033;50.936;5.334;2023-05-10T11:25:43;16.50;99.90
25024;DHT22;13033;50.936;5.334;2023-05-10T11:28:10;16.60;99.90
25024;DHT22;13033;50.936;5.334;2023-05-10T11:30:38;16.70;99.90
25024;DHT22;13033;50.936;5.334;2023-05-10T11:33:03;16.80;99.90
25024;DHT22;13033;50.936;5.334;2023-05-10T11:35:29;16.80;99.90
25024;DHT22;13033;50.936;5.334;2023-05-10T11:37:54;16.70;99.90
25024;DHT22;13033;50.936;5.334;2023-05-10T11:40:23;16.70;99.90
25024;DHT22;13033;50.936;5.334;2023-05-10T11:42:50;16.80;99.90
25024;DHT22;13033;50.936;5.334;2023-05-10T11:45:16;16.80;99.90
25024;DHT22;13033;50.936;5.334;2023-05-10T11:47:42;16.90;99.90
25024;DHT22;13033;50.936;5.334;2023-05-10T11:50:10;16.90;99.90
25024;DHT22;13033;50.936;5.334;2023-05-10T11:52:36;17.10;99.90
25024;DHT22;13033;50.936;5.334;2023-05-10T11:55:05;16.80;99.90
25024;DHT22;13033;50.936;5.334;2023-05-10T11:57:31;16.80;99.90
25024;DHT22;13033;50.936;5.334;2023-05-10T11:59:57;16.80;99.90
25024;DHT22;13033;50.936;5.334;2023-05-10T12:02:23;16.60;99.90
25024;DHT22;13033;50.936;5.334;2023-05-10T12:04:49;16.40;99.90
25024;DHT22;13033;50.936;5.334;2023-05-10T12:07:16;16.40;99.90
25024;DHT22;13033;50.936;5.334;2023-05-10T12:09:43;16.20;99.90
25024;DHT22;13033;50.936;5.334;2023-05-10T12:12:15;16.30;99.90
25024;DHT22;13033;50.936;5.334;2023-05-10T12:14:41;16.30;99.90
25024;DHT22;13033;50.936;5.334;2023-05-10T12:17:11;16.50;99.90
25024;DHT22;13033;50.936;5.334;2023-05-10T12:19:39;16.70;99.90
25024;DHT22;13033;50.936;5.334;2023-05-10T12:22:05;16.90;99.90
25024;DHT22;13033;50.936;5.334;2023-05-10T12:24:34;16.90;99.90
25024;DHT22;13033;50.936;5.334;2023-05-10T12:27:04;17.00;99.90
25024;DHT22;13033;50.936;5.334;2023-05-10T12:29:30;17.20;99.90
25024;DHT22;13033;50.936;5.334;2023-05-10T12:31:58;17.20;98.90
25024;DHT22;13033;50.936;5.334;2023-05-10T12:34:32;16.90;99.90
25024;DHT22;13033;50.936;5.334;2023-05-10T12:36:59;16.80;99.90
25024;DHT22;13033;50.936;5.334;2023-05-10T12:39:25;16.80;99.90
25024;DHT22;13033;50.936;5.334;2023-05-10T12:41:56;16.90;99.90
25024;DHT22;13033;50.936;5.334;2023-05-10T12:44:22;17.00;99.90
25024;DHT22;13033;50.936;5.334;2023-05-10T12:46:48;17.10;99.90
25024;DHT22;13033;50.936;5.334;2023-05-10T12:49:13;17.20;99.90
25024;DHT22;13033;50.936;5.334;2023-05-10T12:51:39;17.10;99.90
25024;DHT22;13033;50.936;5.334;2023-05-10T12:54:05;17.00;99.90
25024;DHT22;13033;50.936;5.334;2023-05-10T12:56:30;16.80;99.90
25024;DHT22;13033;50.936;5.334;2023-05-10T12:58:56;16.90;99.90
25024;DHT22;13033;50.936;5.334;2023-05-10T13:01:21;17.20;99.90
25024;DHT22;13033;50.936;5.334;2023-05-10T13:03:47;17.00;99.90
25024;DHT22;13033;50.936;5.334;2023-05-10T13:06:13;16.90;99.90
25024;DHT22;13033;50.936;5.334;2023-05-10T13:08:39;17.00;99.90
25024;DHT22;13033;50.936;5.334;2023-05-10T13:11:05;17.30;99.90
25024;DHT22;13033;50.936;5.334;2023-05-10T13:13:31;17.70;99.70
25024;DHT22;13033;50.936;5.334;2023-05-10T13:15:57;18.00;95.80
25024;DHT22;13033;50.936;5.334;2023-05-10T13:18:22;18.30;94.50
25024;DHT22;13033;50.936;5.334;2023-05-10T13:20:49;18.20;93.90
25024;DHT22;13033;50.936;5.334;2023-05-10T13:23:15;18.60;94.10
25024;DHT22;13033;50.936;5.334;2023-05-10T13:25:40;19.00;76.30
25024;DHT22;13033;50.936;5.334;2023-05-10T13:28:06;19.10;59.50
25024;DHT22;13033;50.936;5.334;2023-05-10T13:30:31;19.40;29.30
25024;DHT22;13033;50.936;5.334;2023-05-10T13:32:57;19.50;23.30
25024;DHT22;13033;50.936;5.334;2023-05-10T13:35:23;19.30;30.70
25024;DHT22;13033;50.936;5.334;2023-05-10T13:37:48;19.00;34.30
25024;DHT22;13033;50.936;5.334;2023-05-10T13:40:14;18.90;54.40
25024;DHT22;13033;50.936;5.334;2023-05-10T13:42:41;18.90;49.20
25024;DHT22;13033;50.936;5.334;2023-05-10T13:45:07;19.00;37.80
25024;DHT22;13033;50.936;5.334;2023-05-10T13:47:32;19.00;42.80
25024;DHT22;13033;50.936;5.334;2023-05-10T13:49:58;19.20;20.00
25024;DHT22;13033;50.936;5.334;2023-05-10T13:52:24;19.30;18.60
25024;DHT22;13033;50.936;5.334;2023-05-10T13:54:49;19.00;10.80
25024;DHT22;13033;50.936;5.334;2023-05-10T13:57:17;18.80;16.40
25024;DHT22;13033;50.936;5.334;2023-05-10T13:59:43;18.90;26.70
25024;DHT22;13033;50.936;5.334;2023-05-10T14:02:09;18.80;36.00
25024;DHT22;13033;50.936;5.334;2023-05-10T14:04:34;18.70;38.20
25024;DHT22;13033;50.936;5.334;2023-05-10T14:07:00;18.40;46.30
25024;DHT22;13033;50.936;5.334;2023-05-10T14:09:26;18.50;51.60
25024;DHT22;13033;50.936;5.334;2023-05-10T14:11:52;18.70;36.80
25024;DHT22;13033;50.936;5.334;2023-05-10T14:14:17;18.90;36.30
25024;DHT22;13033;50.936;5.334;2023-05-10T14:16:44;18.60;39.20
25024;DHT22;13033;50.936;5.334;2023-05-10T14:19:10;18.70;31.00
25024;DHT22;13033;50.936;5.334;2023-05-10T14:21:36;18.70;36.90
25024;DHT22;13033;50.936;5.334;2023-05-10T14:24:02;18.60;59.30
25024;DHT22;13033;50.936;5.334;2023-05-10T14:26:28;18.70;60.50
25024;DHT22;13033;50.936;5.334;2023-05-10T14:28:53;18.90;67.80
25024;DHT22;13033;50.936;5.334;2023-05-10T14:31:19;19.10;47.40
25024;DHT22;13033;50.936;5.334;2023-05-10T14:33:46;18.80;40.60
25024;DHT22;13033;50.936;5.334;2023-05-10T14:36:12;19.10;22.30
25024;DHT22;13033;50.936;5.334;2023-05-10T14:38:39;18.80;50.00
25024;DHT22;13033;50.936;5.334;2023-05-10T14:41:05;19.00;54.30
25024;DHT22;13033;50.936;5.334;2023-05-10T14:43:30;19.10;36.80
25024;DHT22;13033;50.936;5.334;2023-05-10T14:45:56;19.60;25.30
25024;DHT22;13033;50.936;5.334;2023-05-10T14:48:22;20.00;1.00
25024;DHT22;13033;50.936;5.334;2023-05-10T14:50:47;20.90;1.00
25024;DHT22;13033;50.936;5.334;2023-05-10T14:53:15;21.70;1.00
25024;DHT22;13033;50.936;5.334;2023-05-10T14:55:40;22.30;99.90
25024;DHT22;13033;50.936;5.334;2023-05-10T14:58:06;21.80;1.00
25024;DHT22;13033;50.936;5.334;2023-05-10T15:00:32;21.10;1.00
25024;DHT22;13033;50.936;5.334;2023-05-10T15:02:57;21.30;1.00
25024;DHT22;13033;50.936;5.334;2023-05-10T15:05:23;21.10;1.00
25024;DHT22;13033;50.936;5.334;2023-05-10T15:07:49;20.60;1.00
25024;DHT22;13033;50.936;5.334;2023-05-10T15:10:15;20.20;1.00
25024;DHT22;13033;50.936;5.334;2023-05-10T15:12:41;19.70;1.00
25024;DHT22;13033;50.936;5.334;2023-05-10T15:15:07;19.50;6.10
25024;DHT22;13033;50.936;5.334;2023-05-10T15:17:33;19.40;1.50
25024;DHT22;13033;50.936;5.334;2023-05-10T15:19:59;19.30;8.40
25024;DHT22;13033;50.936;5.334;2023-05-10T15:22:25;19.60;1.00
25024;DHT22;13033;50.936;5.334;2023-05-10T15:24:51;19.80;1.00
25024;DHT22;13033;50.936;5.334;2023-05-10T15:27:16;19.80;1.00
25024;DHT22;13033;50.936;5.334;2023-05-10T15:29:42;19.40;1.00
25024;DHT22;13033;50.936;5.334;2023-05-10T15:32:07;19.30;1.00
25024;DHT22;13033;50.936;5.334;2023-05-10T15:34:33;19.20;1.00
25024;DHT22;13033;50.936;5.334;2023-05-10T15:36:59;19.30;1.00
25024;DHT22;13033;50.936;5.334;2023-05-10T15:39:24;19.20;1.00
25024;DHT22;13033;50.936;5.334;2023-05-10T15:41:50;19.10;1.00
25024;DHT22;13033;50.936;5.334;2023-05-10T15:44:16;19.10;1.00
25024;DHT22;13033;50.936;5.334;2023-05-10T15:46:42;19.30;1.00
25024;DHT22;13033;50.936;5.334;2023-05-10T15:49:07;19.90;1.00
25024;DHT22;13033;50.936;5.334;2023-05-10T15:51:33;20.80;99.90
25024;DHT22;13033;50.936;5.334;2023-05-10T15:53:59;21.30;77.30
25024;DHT22;13033;50.936;5.334;2023-05-10T15:56:27;22.10;1.00
25024;DHT22;13033;50.936;5.334;2023-05-10T15:58:52;23.90;1.00
25024;DHT22;13033;50.936;5.334;2023-05-10T16:01:18;25.60;99.90
25024;DHT22;13033;50.936;5.334;2023-05-10T16:03:44;25.10;99.90
25024;DHT22;13033;50.936;5.334;2023-05-10T16:06:09;24.30;99.90
25024;DHT22;13033;50.936;5.334;2023-05-10T16:08:35;23.00;90.70
25024;DHT22;13033;50.936;5.334;2023-05-10T16:11:01;23.30;1.00
25024;DHT22;13033;50.936;5.334;2023-05-10T16:13:28;22.70;1.00